sensor_id;sensor_type;location;lat;lon;timestamp;temperature;humidity
22645;DHT22;11489;50.834;6.752;2022-08-19T00:01:20;16.60;70.10
22645;DHT22;11489;50.834;6.752;2022-08-19T00:03:46;16.60;70.20
22645;DHT22;11489;50.834;6.752;2022-08-19T00:06:13;16.60;71.10
22645;DHT22;11489;50.834;6.752;2022-08-19T00:08:39;16.60;70.50
22645;DHT22;11489;50.834;6.752;2022-08-19T00:11:05;16.50;70.70
22645;DHT22;11489;50.834;6.752;2022-08-19T00:13:30;16.50;70.90
22645;DHT22;11489;50.834;6.752;2022-08-19T00:15:56;16.40;71.00
22645;DHT22;11489;50.834;6.752;2022-08-19T00:18:24;16.40;71.10
22645;DHT22;11489;50.834;6.752;2022-08-19T00:20:49;16.40;71.10
22645;DHT22;11489;50.834;6.752;2022-08-19T00:23:15;16.40;71.30
22645;DHT22;11489;50.834;6.752;2022-08-19T00:25:41;16.40;71.40
22645;DHT22;11489;50.834;6.752;2022-08-19T00:28:07;16.40;71.50
22645;DHT22;11489;50.834;6.752;2022-08-19T00:30:33;16.30;71.60
22645;DHT22;11489;50.834;6.752;2022-08-19T00:32:59;16.30;71.70
22645;DHT22;11489;50.834;6.752;2022-08-19T00:35:25;16.30;71.80
22645;DHT22;11489;50.834;6.752;2022-08-19T00:37:53;16.30;71.90
22645;DHT22;11489;50.834;6.752;2022-08-19T00:40:20;16.30;72.00
22645;DHT22;11489;50.834;6.752;2022-08-19T00:42:46;16.20;72.00
22645;DHT22;11489;50.834;6.752;2022-08-19T00:45:15;16.20;72.00
22645;DHT22;11489;50.834;6.752;2022-08-19T00:47:43;16.20;72.10
22645;DHT22;11489;50.834;6.752;2022-08-19T00:50:12;16.20;72.00
22645;DHT22;11489;50.834;6.752;2022-08-19T00:52:42;16.10;72.10
22645;DHT22;11489;50.834;6.752;2022-08-19T00:55:13;16.10;72.20
22645;DHT22;11489;50.834;6.752;2022-08-19T00:57:42;16.10;72.30
22645;DHT22;11489;50.834;6.752;2022-08-19T01:00:14;16.10;72.40
22645;DHT22;11489;50.834;6.752;2022-08-19T01:02:41;16.00;72.50
22645;DHT22;11489;50.834;6.752;2022-08-19T01:05:11;16.00;72.50
22645;DHT22;11489;50.834;6.752;2022-08-19T01:07:39;15.90;72.80
22645;DHT22;11489;50.834;6.752;2022-08-19T01:10:11;15.90;72.80
22645;DHT22;11489;50.834;6.752;2022-08-19T01:12:38;15.90;72.90
22645;DHT22;11489;50.834;6.752;2022-08-19T01:15:07;15.90;73.00
22645;DHT22;11489;50.834;6.752;2022-08-19T01:17:34;15.80;73.20
22645;DHT22;11489;50.834;6.752;2022-08-19T01:20:00;15.80;73.20
22645;DHT22;11489;50.834;6.752;2022-08-19T01:22:30;15.80;73.30
22645;DHT22;11489;50.834;6.752;2022-08-19T01:24:57;15.80;73.70
22645;DHT22;11489;50.834;6.752;2022-08-19T01:27:23;15.80;73.40
22645;DHT22;11489;50.834;6.752;2022-08-19T01:29:49;15.70;73.50
22645;DHT22;11489;50.834;6.752;2022-08-19T01:32:16;15.70;73.60
22645;DHT22;11489;50.834;6.752;2022-08-19T01:34:43;15.70;73.80
22645;DHT22;11489;50.834;6.752;2022-08-19T01:37:13;15.70;73.80
22645;DHT22;11489;50.834;6.752;2022-08-19T01:39:40;15.60;73.80
22645;DHT22;11489;50.834;6.752;2022-08-19T01:42:08;15.60;73.90
22645;DHT22;11489;50.834;6.752;2022-08-19T01:44:35;15.60;74.10
22645;DHT22;11489;50.834;6.752;2022-08-19T01:47:02;15.60;74.10
22645;DHT22;11489;50.834;6.752;2022-08-19T01:49:29;15.60;74.30
22645;DHT22;11489;50.834;6.752;2022-08-19T01:51:55;15.50;74.40
22645;DHT22;11489;50.834;6.752;2022-08-19T01:54:23;15.50;74.50
22645;DHT22;11489;50.834;6.752;2022-08-19T01:56:51;15.50;74.60
22645;DHT22;11489;50.834;6.752;2022-08-19T01:59:19;15.50;74.80
22645;DHT22;11489;50.834;6.752;2022-08-19T02:01:46;15.40;74.80
22645;DHT22;11489;50.834;6.752;2022-08-19T02:04:11;15.40;74.90
22645;DHT22;11489;50.834;6.752;2022-08-19T02:06:37;15.40;75.00
22645;DHT22;11489;50.834;6.752;2022-08-19T02:09:08;15.40;75.10
22645;DHT22;11489;50.834;6.752;2022-08-19T02:11:35;15.40;75.40
22645;DHT22;11489;50.834;6.752;2022-08-19T02:14:05;15.40;75.30
22645;DHT22;11489;50.834;6.752;2022-08-19T02:16:31;15.40;75.40
22645;DHT22;11489;50.834;6.752;2022-08-19T02:18:58;15.40;75.50
22645;DHT22;11489;50.834;6.752;2022-08-19T02:21:26;15.30;75.40
22645;DHT22;11489;50.834;6.752;2022-08-19T02:23:52;15.30;75.40
22645;DHT22;11489;50.834;6.752;2022-08-19T02:26:18;15.30;75.40
22645;DHT22;11489;50.834;6.752;2022-08-19T02:28:44;15.30;75.50
22645;DHT22;11489;50.834;6.752;2022-08-19T02:31:16;15.20;75.50
22645;DHT22;11489;50.834;6.752;2022-08-19T02:33:43;15.20;75.80
22645;DHT22;11489;50.834;6.752;2022-08-19T02:36:10;15.20;75.60
22645;DHT22;11489;50.834;6.752;2022-08-19T02:38:36;15.20;75.70
22645;DHT22;11489;50.834;6.752;2022-08-19T02:41:18;15.20;75.70
22645;DHT22;11489;50.834;6.752;2022-08-19T02:43:45;15.20;76.70
22645;DHT22;11489;50.834;6.752;2022-08-19T02:46:16;15.10;75.90
22645;DHT22;11489;50.834;6.752;2022-08-19T02:48:43;15.10;76.10
22645;DHT22;11489;50.834;6.752;2022-08-19T02:51:16;15.10;76.20
22645;DHT22;11489;50.834;6.752;2022-08-19T02:53:42;15.10;76.80
22645;DHT22;11489;50.834;6.752;2022-08-19T02:56:07;15.10;76.40
22645;DHT22;11489;50.834;6.752;2022-08-19T02:58:33;15.10;76.50
22645;DHT22;11489;50.834;6.752;2022-08-19T03:00:59;15.10;76.70
22645;DHT22;11489;50.834;6.752;2022-08-19T03:03:25;15.10;76.70
22645;DHT22;11489;50.834;6.752;2022-08-19T03:05:51;15.10;76.70
22645;DHT22;11489;50.834;6.752;2022-08-19T03:08:17;15.10;76.80
22645;DHT22;11489;50.834;6.752;2022-08-19T03:10:45;15.20;76.80
22645;DHT22;11489;50.834;6.752;2022-08-19T03:13:14;15.10;76.90
22645;DHT22;11489;50.834;6.752;2022-08-19T03:15:42;15.10;76.90
22645;DHT22;11489;50.834;6.752;2022-08-19T03:18:09;15.10;77.00
22645;DHT22;11489;50.834;6.752;2022-08-19T03:20:40;15.10;77.00
22645;DHT22;11489;50.834;6.752;2022-08-19T03:23:06;15.10;77.30
22645;DHT22;11489;50.834;6.752;2022-08-19T03:25:37;15.10;77.00
22645;DHT22;11489;50.834;6.752;2022-08-19T03:28:03;15.10;77.30
22645;DHT22;11489;50.834;6.752;2022-08-19T03:30:29;15.10;77.00
22645;DHT22;11489;50.834;6.752;2022-08-19T03:32:54;15.10;77.00
22645;DHT22;11489;50.834;6.752;2022-08-19T03:35:20;15.10;77.00
22645;DHT22;11489;50.834;6.752;2022-08-19T03:37:46;15.00;76.90
22645;DHT22;11489;50.834;6.752;2022-08-19T03:40:12;15.10;77.00
22645;DHT22;11489;50.834;6.752;2022-08-19T03:42:37;15.00;77.10
22645;DHT22;11489;50.834;6.752;2022-08-19T03:45:04;15.00;77.20
22645;DHT22;11489;50.834;6.752;2022-08-19T03:47:29;15.00;77.20
22645;DHT22;11489;50.834;6.752;2022-08-19T03:49:55;15.00;77.20
22645;DHT22;11489;50.834;6.752;2022-08-19T03:52:21;15.00;77.40
22645;DHT22;11489;50.834;6.752;2022-08-19T03:54:47;14.90;77.40
22645;DHT22;11489;50.834;6.752;2022-08-19T03:57:12;14.90;77.60
22645;DHT22;11489;50.834;6.752;2022-08-19T03:59:39;14.90;77.70
22645;DHT22;11489;50.834;6.752;2022-08-19T04:02:10;15.00;78.00
22645;DHT22;11489;50.834;6.752;2022-08-19T04:04:38;15.00;78.50
22645;DHT22;11489;50.834;6.752;2022-08-19T04:07:04;15.00;78.30
22645;DHT22;11489;50.834;6.752;2022-08-19T04:09:30;15.00;78.50
22645;DHT22;11489;50.834;6.752;2022-08-19T04:11:57;15.00;78.50
22645;DHT22;11489;50.834;6.752;2022-08-19T04:14:26;15.00;78.50
22645;DHT22;11489;50.834;6.752;2022-08-19T04:16:52;15.00;78.60
22645;DHT22;11489;50.834;6.752;2022-08-19T04:19:19;15.00;78.50
22645;DHT22;11489;50.834;6.752;2022-08-19T04:21:47;15.10;78.60
22645;DHT22;11489;50.834;6.752;2022-08-19T04:24:13;15.00;78.50
22645;DHT22;11489;50.834;6.752;2022-08-19T04:26:39;15.00;78.40
22645;DHT22;11489;50.834;6.752;2022-08-19T04:29:12;15.10;78.40
22645;DHT22;11489;50.834;6.752;2022-08-19T04:31:39;15.00;78.70
22645;DHT22;11489;50.834;6.752;2022-08-19T04:34:09;15.00;78.30
22645;DHT22;11489;50.834;6.752;2022-08-19T04:36:37;15.00;78.40
22645;DHT22;11489;50.834;6.752;2022-08-19T04:39:06;15.00;78.30
22645;DHT22;11489;50.834;6.752;2022-08-19T04:41:33;15.00;78.40
22645;DHT22;11489;50.834;6.752;2022-08-19T04:44:17;15.00;78.30
22645;DHT22;11489;50.834;6.752;2022-08-19T04:46:44;15.00;78.30
22645;DHT22;11489;50.834;6.752;2022-08-19T04:49:10;15.00;78.40
22645;DHT22;11489;50.834;6.752;2022-08-19T04:51:39;15.00;78.50
22645;DHT22;11489;50.834;6.752;2022-08-19T04:54:05;15.00;78.70
22645;DHT22;11489;50.834;6.752;2022-08-19T04:56:30;15.00;78.80
22645;DHT22;11489;50.834;6.752;2022-08-19T04:58:57;15.00;79.00
22645;DHT22;11489;50.834;6.752;2022-08-19T05:01:29;15.00;79.20
22645;DHT22;11489;50.834;6.752;2022-08-19T05:03:55;15.10;79.30
22645;DHT22;11489;50.834;6.752;2022-08-19T05:06:22;15.10;79.40
22645;DHT22;11489;50.834;6.752;2022-08-19T05:08:49;15.10;79.40
22645;DHT22;11489;50.834;6.752;2022-08-19T05:11:21;15.20;79.40
22645;DHT22;11489;50.834;6.752;2022-08-19T05:13:48;15.20;79.50
22645;DHT22;11489;50.834;6.752;2022-08-19T05:16:19;15.20;79.50
22645;DHT22;11489;50.834;6.752;2022-08-19T05:18:45;15.20;79.70
22645;DHT22;11489;50.834;6.752;2022-08-19T05:21:31;15.30;79.80
22645;DHT22;11489;50.834;6.752;2022-08-19T05:24:16;15.40;79.90
22645;DHT22;11489;50.834;6.752;2022-08-19T05:26:45;15.40;80.00
22645;DHT22;11489;50.834;6.752;2022-08-19T05:29:16;15.50;80.30
22645;DHT22;11489;50.834;6.752;2022-08-19T05:31:42;15.60;80.30
22645;DHT22;11489;50.834;6.752;2022-08-19T05:34:09;15.70;80.40
22645;DHT22;11489;50.834;6.752;2022-08-19T05:36:38;15.70;80.50
22645;DHT22;11489;50.834;6.752;2022-08-19T05:39:06;15.80;80.70
22645;DHT22;11489;50.834;6.752;2022-08-19T05:41:32;15.90;80.70
22645;DHT22;11489;50.834;6.752;2022-08-19T05:44:02;16.00;80.80
22645;DHT22;11489;50.834;6.752;2022-08-19T05:46:28;16.10;81.10
22645;DHT22;11489;50.834;6.752;2022-08-19T05:48:55;16.20;81.10
22645;DHT22;11489;50.834;6.752;2022-08-19T05:51:22;16.30;81.20
22645;DHT22;11489;50.834;6.752;2022-08-19T05:53:49;16.50;81.40
22645;DHT22;11489;50.834;6.752;2022-08-19T05:56:16;16.60;81.60
22645;DHT22;11489;50.834;6.752;2022-08-19T05:58:43;16.70;81.70
22645;DHT22;11489;50.834;6.752;2022-08-19T06:01:15;16.90;81.80
22645;DHT22;11489;50.834;6.752;2022-08-19T06:03:41;17.00;82.00
22645;DHT22;11489;50.834;6.752;2022-08-19T06:06:09;17.20;81.70
22645;DHT22;11489;50.834;6.752;2022-08-19T06:08:35;17.30;81.60
22645;DHT22;11489;50.834;6.752;2022-08-19T06:11:23;17.50;81.60
22645;DHT22;11489;50.834;6.752;2022-08-19T06:13:52;17.70;82.10
22645;DHT22;11489;50.834;6.752;2022-08-19T06:16:22;17.80;81.60
22645;DHT22;11489;50.834;6.752;2022-08-19T06:18:59;18.00;81.60
22645;DHT22;11489;50.834;6.752;2022-08-19T06:21:27;18.20;81.80
22645;DHT22;11489;50.834;6.752;2022-08-19T06:23:55;18.30;81.30
22645;DHT22;11489;50.834;6.752;2022-08-19T06:26:22;18.50;81.30
22645;DHT22;11489;50.834;6.752;2022-08-19T06:28:48;18.70;81.30
22645;DHT22;11489;50.834;6.752;2022-08-19T06:31:19;18.90;81.00
22645;DHT22;11489;50.834;6.752;2022-08-19T06:33:47;19.10;80.50
22645;DHT22;11489;50.834;6.752;2022-08-19T06:36:28;19.30;79.80
22645;DHT22;11489;50.834;6.752;2022-08-19T06:39:04;19.40;79.40
22645;DHT22;11489;50.834;6.752;2022-08-19T06:41:31;19.50;78.90
22645;DHT22;11489;50.834;6.752;2022-08-19T06:43:59;19.60;78.60
22645;DHT22;11489;50.834;6.752;2022-08-19T06:46:25;19.70;78.70
22645;DHT22;11489;50.834;6.752;2022-08-19T06:48:52;19.80;78.20
22645;DHT22;11489;50.834;6.752;2022-08-19T06:51:19;19.90;78.10
22645;DHT22;11489;50.834;6.752;2022-08-19T06:53:50;19.90;77.90
22645;DHT22;11489;50.834;6.752;2022-08-19T06:56:18;20.10;77.90
22645;DHT22;11489;50.834;6.752;2022-08-19T06:58:44;20.10;77.60
22645;DHT22;11489;50.834;6.752;2022-08-19T07:01:12;20.20;77.20
22645;DHT22;11489;50.834;6.752;2022-08-19T07:03:38;20.30;77.60
22645;DHT22;11489;50.834;6.752;2022-08-19T07:06:12;20.30;76.60
22645;DHT22;11489;50.834;6.752;2022-08-19T07:08:41;20.40;76.30
22645;DHT22;11489;50.834;6.752;2022-08-19T07:11:10;20.40;76.20
22645;DHT22;11489;50.834;6.752;2022-08-19T07:13:39;20.40;76.10
22645;DHT22;11489;50.834;6.752;2022-08-19T07:16:12;20.40;76.00
22645;DHT22;11489;50.834;6.752;2022-08-19T07:18:38;20.40;75.80
22645;DHT22;11489;50.834;6.752;2022-08-19T07:21:08;20.40;75.80
22645;DHT22;11489;50.834;6.752;2022-08-19T07:23:34;20.40;75.70
22645;DHT22;11489;50.834;6.752;2022-08-19T07:26:08;20.50;75.80
22645;DHT22;11489;50.834;6.752;2022-08-19T07:28:34;20.50;75.80
22645;DHT22;11489;50.834;6.752;2022-08-19T07:31:01;20.50;75.80
22645;DHT22;11489;50.834;6.752;2022-08-19T07:33:28;20.50;75.70
22645;DHT22;11489;50.834;6.752;2022-08-19T07:35:57;20.60;75.70
22645;DHT22;11489;50.834;6.752;2022-08-19T07:38:23;20.60;75.60
22645;DHT22;11489;50.834;6.752;2022-08-19T07:40:49;20.60;75.50
22645;DHT22;11489;50.834;6.752;2022-08-19T07:43:17;20.70;75.70
22645;DHT22;11489;50.834;6.752;2022-08-19T07:45:51;20.80;75.60
22645;DHT22;11489;50.834;6.752;2022-08-19T07:48:26;20.80;75.40
22645;DHT22;11489;50.834;6.752;2022-08-19T07:50:58;20.80;75.10
22645;DHT22;11489;50.834;6.752;2022-08-19T07:53:28;20.90;75.00
22645;DHT22;11489;50.834;6.752;2022-08-19T07:55:54;20.90;74.90
22645;DHT22;11489;50.834;6.752;2022-08-19T07:58:21;20.90;74.80
22645;DHT22;11489;50.834;6.752;2022-08-19T08:00:49;21.00;74.80
22645;DHT22;11489;50.834;6.752;2022-08-19T08:03:18;21.00;74.70
22645;DHT22;11489;50.834;6.752;2022-08-19T08:05:45;21.00;74.70
22645;DHT22;11489;50.834;6.752;2022-08-19T08:08:30;21.00;74.70
22645;DHT22;11489;50.834;6.752;2022-08-19T08:11:04;21.10;74.70
22645;DHT22;11489;50.834;6.752;2022-08-19T08:13:29;21.10;75.00
22645;DHT22;11489;50.834;6.752;2022-08-19T08:15:57;21.20;75.20
22645;DHT22;11489;50.834;6.752;2022-08-19T08:18:23;21.40;75.10
22645;DHT22;11489;50.834;6.752;2022-08-19T08:20:49;21.50;74.90
22645;DHT22;11489;50.834;6.752;2022-08-19T08:23:15;21.70;74.60
22645;DHT22;11489;50.834;6.752;2022-08-19T08:25:56;21.80;74.30
22645;DHT22;11489;50.834;6.752;2022-08-19T08:28:23;21.90;73.70
22645;DHT22;11489;50.834;6.752;2022-08-19T08:30:50;22.00;73.70
22645;DHT22;11489;50.834;6.752;2022-08-19T08:33:20;22.10;73.50
22645;DHT22;11489;50.834;6.752;2022-08-19T08:35:47;22.20;73.10
22645;DHT22;11489;50.834;6.752;2022-08-19T08:38:13;22.30;73.10
22645;DHT22;11489;50.834;6.752;2022-08-19T08:46:02;22.70;70.70
22645;DHT22;11489;50.834;6.752;2022-08-19T08:48:44;22.70;71.30
22645;DHT22;11489;50.834;6.752;2022-08-19T08:51:18;22.80;70.70
22645;DHT22;11489;50.834;6.752;2022-08-19T08:53:49;23.00;71.00
22645;DHT22;11489;50.834;6.752;2022-08-19T08:56:16;23.20;71.70
22645;DHT22;11489;50.834;6.752;2022-08-19T09:01:25;23.80;69.20
22645;DHT22;11489;50.834;6.752;2022-08-19T09:03:51;24.00;70.50
22645;DHT22;11489;50.834;6.752;2022-08-19T09:06:36;24.40;70.20
22645;DHT22;11489;50.834;6.752;2022-08-19T09:09:04;24.60;67.50
22645;DHT22;11489;50.834;6.752;2022-08-19T09:17:00;25.30;66.30
22645;DHT22;11489;50.834;6.752;2022-08-19T09:19:29;25.40;66.20
22645;DHT22;11489;50.834;6.752;2022-08-19T09:21:55;25.50;65.40
22645;DHT22;11489;50.834;6.752;2022-08-19T09:24:21;25.60;65.10
22645;DHT22;11489;50.834;6.752;2022-08-19T09:26:46;25.80;65.20
22645;DHT22;11489;50.834;6.752;2022-08-19T09:29:12;26.00;64.40
22645;DHT22;11489;50.834;6.752;2022-08-19T09:31:38;26.10;63.80
22645;DHT22;11489;50.834;6.752;2022-08-19T09:34:04;26.30;62.10
22645;DHT22;11489;50.834;6.752;2022-08-19T09:36:33;26.40;61.40
22645;DHT22;11489;50.834;6.752;2022-08-19T09:39:00;26.50;60.80
22645;DHT22;11489;50.834;6.752;2022-08-19T09:41:26;26.50;59.20
22645;DHT22;11489;50.834;6.752;2022-08-19T09:43:53;26.50;59.80
22645;DHT22;11489;50.834;6.752;2022-08-19T09:46:27;26.50;59.40
22645;DHT22;11489;50.834;6.752;2022-08-19T09:48:54;26.50;58.90
22645;DHT22;11489;50.834;6.752;2022-08-19T09:51:25;26.60;58.80
22645;DHT22;11489;50.834;6.752;2022-08-19T09:53:52;26.60;58.60
22645;DHT22;11489;50.834;6.752;2022-08-19T09:56:22;26.70;58.80
22645;DHT22;11489;50.834;6.752;2022-08-19T09:58:49;26.70;58.80
22645;DHT22;11489;50.834;6.752;2022-08-19T10:01:28;26.90;58.80
22645;DHT22;11489;50.834;6.752;2022-08-19T10:03:56;27.00;58.30
22645;DHT22;11489;50.834;6.752;2022-08-19T10:06:24;27.20;58.50
22645;DHT22;11489;50.834;6.752;2022-08-19T10:08:51;27.30;58.20
22645;DHT22;11489;50.834;6.752;2022-08-19T10:11:18;27.40;58.00
22645;DHT22;11489;50.834;6.752;2022-08-19T10:13:44;27.50;57.60
22645;DHT22;11489;50.834;6.752;2022-08-19T10:16:17;27.60;57.30
22645;DHT22;11489;50.834;6.752;2022-08-19T10:18:44;27.70;56.80
22645;DHT22;11489;50.834;6.752;2022-08-19T10:21:19;27.90;57.50
22645;DHT22;11489;50.834;6.752;2022-08-19T10:23:47;28.20;56.70
22645;DHT22;11489;50.834;6.752;2022-08-19T10:26:17;28.40;57.10
22645;DHT22;11489;50.834;6.752;2022-08-19T10:28:43;28.60;56.60
22645;DHT22;11489;50.834;6.752;2022-08-19T10:31:17;28.90;56.60
22645;DHT22;11489;50.834;6.752;2022-08-19T10:33:46;29.10;55.10
22645;DHT22;11489;50.834;6.752;2022-08-19T10:36:16;29.20;54.80
22645;DHT22;11489;50.834;6.752;2022-08-19T10:38:44;29.20;52.10
22645;DHT22;11489;50.834;6.752;2022-08-19T10:41:22;29.20;52.90
22645;DHT22;11489;50.834;6.752;2022-08-19T10:43:52;29.20;52.80
22645;DHT22;11489;50.834;6.752;2022-08-19T10:46:20;29.30;52.90
22645;DHT22;11489;50.834;6.752;2022-08-19T10:48:47;29.30;52.40
22645;DHT22;11489;50.834;6.752;2022-08-19T10:51:13;29.40;53.00
22645;DHT22;11489;50.834;6.752;2022-08-19T10:53:57;29.40;53.20
22645;DHT22;11489;50.834;6.752;2022-08-19T10:56:23;29.50;53.00
22645;DHT22;11489;50.834;6.752;2022-08-19T10:59:08;29.60;53.10
22645;DHT22;11489;50.834;6.752;2022-08-19T11:01:34;29.80;52.90
22645;DHT22;11489;50.834;6.752;2022-08-19T11:04:02;29.90;52.70
22645;DHT22;11489;50.834;6.752;2022-08-19T11:06:29;30.00;51.10
22645;DHT22;11489;50.834;6.752;2022-08-19T11:08:56;30.00;51.30
22645;DHT22;11489;50.834;6.752;2022-08-19T11:11:22;30.00;51.10
22645;DHT22;11489;50.834;6.752;2022-08-19T11:13:48;30.00;51.40
22645;DHT22;11489;50.834;6.752;2022-08-19T11:16:17;30.00;50.80
22645;DHT22;11489;50.834;6.752;2022-08-19T11:18:46;29.90;50.20
22645;DHT22;11489;50.834;6.752;2022-08-19T11:21:21;29.80;50.10
22645;DHT22;11489;50.834;6.752;2022-08-19T11:23:48;29.70;49.20
22645;DHT22;11489;50.834;6.752;2022-08-19T11:26:15;29.60;49.90
22645;DHT22;11489;50.834;6.752;2022-08-19T11:28:41;29.50;50.00
22645;DHT22;11489;50.834;6.752;2022-08-19T11:31:12;29.40;50.20
22645;DHT22;11489;50.834;6.752;2022-08-19T11:33:38;29.40;50.00
22645;DHT22;11489;50.834;6.752;2022-08-19T11:36:04;29.50;50.70
22645;DHT22;11489;50.834;6.752;2022-08-19T11:38:30;29.50;50.40
22645;DHT22;11489;50.834;6.752;2022-08-19T11:41:00;29.60;50.40
22645;DHT22;11489;50.834;6.752;2022-08-19T11:43:27;29.60;49.80
22645;DHT22;11489;50.834;6.752;2022-08-19T11:45:54;29.70;50.10
22645;DHT22;11489;50.834;6.752;2022-08-19T11:48:21;29.80;50.20
22645;DHT22;11489;50.834;6.752;2022-08-19T11:50:51;29.90;49.60
22645;DHT22;11489;50.834;6.752;2022-08-19T11:53:18;29.90;47.90
22645;DHT22;11489;50.834;6.752;2022-08-19T11:55:49;29.70;48.30
22645;DHT22;11489;50.834;6.752;2022-08-19T11:58:16;29.70;48.30
22645;DHT22;11489;50.834;6.752;2022-08-19T12:00:43;29.60;48.50
22645;DHT22;11489;50.834;6.752;2022-08-19T12:03:12;29.50;48.70
22645;DHT22;11489;50.834;6.752;2022-08-19T12:05:38;29.60;48.40
22645;DHT22;11489;50.834;6.752;2022-08-19T12:08:05;29.70;48.30
22645;DHT22;11489;50.834;6.752;2022-08-19T12:10:32;29.70;46.90
22645;DHT22;11489;50.834;6.752;2022-08-19T12:12:58;29.70;47.10
22645;DHT22;11489;50.834;6.752;2022-08-19T12:15:25;29.50;47.10
22645;DHT22;11489;50.834;6.752;2022-08-19T12:17:53;29.50;47.50
22645;DHT22;11489;50.834;6.752;2022-08-19T12:20:23;29.60;47.90
22645;DHT22;11489;50.834;6.752;2022-08-19T12:22:49;29.70;47.90
22645;DHT22;11489;50.834;6.752;2022-08-19T12:25:15;29.80;47.90
22645;DHT22;11489;50.834;6.752;2022-08-19T12:27:41;29.80;47.60
22645;DHT22;11489;50.834;6.752;2022-08-19T12:30:09;29.90;47.00
22645;DHT22;11489;50.834;6.752;2022-08-19T12:32:36;29.80;46.40
22645;DHT22;11489;50.834;6.752;2022-08-19T12:35:02;29.70;46.30
22645;DHT22;11489;50.834;6.752;2022-08-19T12:37:28;29.50;46.30
22645;DHT22;11489;50.834;6.752;2022-08-19T12:39:55;29.50;46.30
22645;DHT22;11489;50.834;6.752;2022-08-19T12:42:21;29.30;44.90
22645;DHT22;11489;50.834;6.752;2022-08-19T12:44:47;29.20;45.40
22645;DHT22;11489;50.834;6.752;2022-08-19T12:47:14;29.20;45.90
22645;DHT22;11489;50.834;6.752;2022-08-19T12:49:40;29.10;46.00
22645;DHT22;11489;50.834;6.752;2022-08-19T12:52:07;29.20;46.10
22645;DHT22;11489;50.834;6.752;2022-08-19T12:54:36;29.20;45.60
22645;DHT22;11489;50.834;6.752;2022-08-19T12:57:09;29.20;44.70
22645;DHT22;11489;50.834;6.752;2022-08-19T12:59:36;29.10;44.50
22645;DHT22;11489;50.834;6.752;2022-08-19T13:02:04;29.10;45.30
22645;DHT22;11489;50.834;6.752;2022-08-19T13:04:34;29.10;45.50
22645;DHT22;11489;50.834;6.752;2022-08-19T13:07:03;29.20;45.90
22645;DHT22;11489;50.834;6.752;2022-08-19T13:09:28;29.40;45.90
22645;DHT22;11489;50.834;6.752;2022-08-19T13:11:54;29.50;45.40
22645;DHT22;11489;50.834;6.752;2022-08-19T13:14:20;29.70;45.00
22645;DHT22;11489;50.834;6.752;2022-08-19T13:16:45;29.80;45.00
22645;DHT22;11489;50.834;6.752;2022-08-19T13:19:11;29.90;44.90
22645;DHT22;11489;50.834;6.752;2022-08-19T13:21:38;30.00;44.80
22645;DHT22;11489;50.834;6.752;2022-08-19T13:24:04;30.20;44.70
22645;DHT22;11489;50.834;6.752;2022-08-19T13:26:30;30.20;43.80
22645;DHT22;11489;50.834;6.752;2022-08-19T13:28:56;30.20;43.60
22645;DHT22;11489;50.834;6.752;2022-08-19T13:31:41;30.10;43.40
22645;DHT22;11489;50.834;6.752;2022-08-19T13:34:31;30.00;42.90
22645;DHT22;11489;50.834;6.752;2022-08-19T13:36:59;29.90;43.10
22645;DHT22;11489;50.834;6.752;2022-08-19T13:39:28;29.90;43.60
22645;DHT22;11489;50.834;6.752;2022-08-19T13:41:54;29.90;43.30
22645;DHT22;11489;50.834;6.752;2022-08-19T13:44:20;29.80;43.10
22645;DHT22;11489;50.834;6.752;2022-08-19T13:46:47;29.80;42.10
22645;DHT22;11489;50.834;6.752;2022-08-19T13:49:14;29.70;42.60
22645;DHT22;11489;50.834;6.752;2022-08-19T13:51:44;29.60;42.50
22645;DHT22;11489;50.834;6.752;2022-08-19T13:54:10;29.60;42.90
22645;DHT22;11489;50.834;6.752;2022-08-19T13:56:41;29.60;43.10
22645;DHT22;11489;50.834;6.752;2022-08-19T13:59:07;29.60;43.30
22645;DHT22;11489;50.834;6.752;2022-08-19T14:01:33;29.60;43.10
22645;DHT22;11489;50.834;6.752;2022-08-19T14:03:59;29.60;43.50
22645;DHT22;11489;50.834;6.752;2022-08-19T14:06:25;29.70;43.60
22645;DHT22;11489;50.834;6.752;2022-08-19T14:08:50;29.70;43.60
22645;DHT22;11489;50.834;6.752;2022-08-19T14:11:18;29.80;43.40
22645;DHT22;11489;50.834;6.752;2022-08-19T14:13:44;29.90;43.40
22645;DHT22;11489;50.834;6.752;2022-08-19T14:16:12;30.00;43.40
22645;DHT22;11489;50.834;6.752;2022-08-19T14:18:38;30.10;43.20
22645;DHT22;11489;50.834;6.752;2022-08-19T14:21:05;30.30;43.30
22645;DHT22;11489;50.834;6.752;2022-08-19T14:23:32;30.50;43.20
22645;DHT22;11489;50.834;6.752;2022-08-19T14:26:11;30.50;42.20
22645;DHT22;11489;50.834;6.752;2022-08-19T14:28:38;30.60;42.10
22645;DHT22;11489;50.834;6.752;2022-08-19T14:31:06;30.60;42.00
22645;DHT22;11489;50.834;6.752;2022-08-19T14:33:31;30.60;41.90
22645;DHT22;11489;50.834;6.752;2022-08-19T14:35:57;30.70;42.20
22645;DHT22;11489;50.834;6.752;2022-08-19T14:38:23;30.70;41.50
22645;DHT22;11489;50.834;6.752;2022-08-19T14:40:49;30.80;41.20
22645;DHT22;11489;50.834;6.752;2022-08-19T14:43:17;30.90;40.80
22645;DHT22;11489;50.834;6.752;2022-08-19T14:45:43;31.10;40.90
22645;DHT22;11489;50.834;6.752;2022-08-19T14:48:09;31.20;40.70
22645;DHT22;11489;50.834;6.752;2022-08-19T14:50:35;31.20;39.00
22645;DHT22;11489;50.834;6.752;2022-08-19T14:53:07;31.20;39.80
22645;DHT22;11489;50.834;6.752;2022-08-19T14:55:34;31.20;39.20
22645;DHT22;11489;50.834;6.752;2022-08-19T14:58:00;31.10;38.70
22645;DHT22;11489;50.834;6.752;2022-08-19T15:00:26;30.90;39.40
22645;DHT22;11489;50.834;6.752;2022-08-19T15:02:53;30.90;40.10
22645;DHT22;11489;50.834;6.752;2022-08-19T15:05:22;30.90;40.50
22645;DHT22;11489;50.834;6.752;2022-08-19T15:07:47;31.00;40.80
22645;DHT22;11489;50.834;6.752;2022-08-19T15:10:15;31.10;40.80
22645;DHT22;11489;50.834;6.752;2022-08-19T15:12:41;31.30;40.70
22645;DHT22;11489;50.834;6.752;2022-08-19T15:15:12;31.30;40.50
22645;DHT22;11489;50.834;6.752;2022-08-19T15:17:42;31.30;40.00
22645;DHT22;11489;50.834;6.752;2022-08-19T15:20:09;31.20;40.00
22645;DHT22;11489;50.834;6.752;2022-08-19T15:22:35;31.10;39.90
22645;DHT22;11489;50.834;6.752;2022-08-19T15:25:01;30.90;39.90
22645;DHT22;11489;50.834;6.752;2022-08-19T15:27:27;30.60;40.00
22645;DHT22;11489;50.834;6.752;2022-08-19T15:29:53;30.30;40.20
22645;DHT22;11489;50.834;6.752;2022-08-19T15:32:18;30.00;40.40
22645;DHT22;11489;50.834;6.752;2022-08-19T15:34:44;29.70;40.60
22645;DHT22;11489;50.834;6.752;2022-08-19T15:37:14;29.40;40.90
22645;DHT22;11489;50.834;6.752;2022-08-19T15:39:39;29.10;41.10
22645;DHT22;11489;50.834;6.752;2022-08-19T15:42:05;28.90;41.50
22645;DHT22;11489;50.834;6.752;2022-08-19T15:44:32;28.70;41.80
22645;DHT22;11489;50.834;6.752;2022-08-19T15:46:58;28.50;42.10
22645;DHT22;11489;50.834;6.752;2022-08-19T15:49:24;28.50;42.70